Time;durP1;ratioP1;P1;durP2;ratioP2;P2;SDS_P1;SDS_P2;PMS_P1;PMS_P2;Temp;Humidity;BMP_temperature;BMP_pressure;BME280_temperature;BME280_humidity;BME280_pressure;Samples;Min_cycle;Max_cycle;Signal;HPM_P1;HPM_P2
2022/11/21 00:01:16;;;;;;;7.93;4.68;;;-3.40;99.90;;;;;;5035992;28;20053;-82
2022/11/21 00:03:45;;;;;;;9.68;5.57;;;-3.40;99.90;;;;;;5039192;28;20083;-82
2022/11/21 00:06:14;;;;;;;8.50;5.63;;;-3.30;99.90;;;;;;5040973;28;20037;-80
2022/11/21 00:08:42;;;;;;;9.25;5.70;;;-3.40;99.90;;;;;;5048269;28;20251;-81
2022/11/21 00:11:09;;;;;;;6.93;4.50;;;-3.40;99.90;;;;;;5051655;28;20409;-81
2022/11/21 00:13:36;;;;;;;7.38;5.35;;;-3.40;99.90;;;;;;5050218;28;20107;-82
2022/11/21 00:16:06;;;;;;;7.63;5.88;;;-3.40;99.90;;;;;;5052011;28;20378;-82
2022/11/21 00:18:35;;;;;;;8.48;5.30;;;-3.50;99.90;;;;;;5082253;28;20045;-82
2022/11/21 00:21:08;;;;;;;7.00;4.85;;;-3.40;99.90;;;;;;5044264;28;20052;-81
2022/11/21 00:23:36;;;;;;;5.80;4.35;;;-3.40;99.90;;;;;;5049562;28;20076;-81
2022/11/21 00:26:07;;;;;;;7.28;4.97;;;-3.40;99.90;;;;;;5041757;28;20044;-81
2022/11/21 00:28:35;;;;;;;7.43;4.95;;;-3.40;99.90;;;;;;5070919;28;20185;-81
2022/11/21 00:31:02;;;;;;;6.85;5.18;;;-3.40;99.90;;;;;;5033251;28;20512;-83
2022/11/21 00:33:30;;;;;;;8.30;5.47;;;-3.40;99.90;;;;;;5043630;28;20034;-81
2022/11/21 00:35:57;;;;;;;7.63;4.90;;;-3.40;99.90;;;;;;5049769;28;20045;-81
2022/11/21 00:38:27;;;;;;;7.63;5.15;;;-3.40;99.90;;;;;;5065588;28;20145;-81
2022/11/21 00:40:55;;;;;;;7.60;5.03;;;-3.40;99.90;;;;;;5066151;28;20045;-82
2022/11/21 00:43:22;;;;;;;7.22;5.20;;;-3.40;99.90;;;;;;5043415;28;20235;-83
2022/11/21 00:45:50;;;;;;;7.35;4.40;;;-3.40;99.90;;;;;;5051806;28;20135;-82
2022/11/21 00:48:17;;;;;;;8.38;4.80;;;-3.50;99.90;;;;;;5051842;28;20047;-83
2022/11/21 00:50:48;;;;;;;5.45;4.70;;;-3.60;99.90;;;;;;5050651;28;20037;-81
2022/11/21 00:53:15;;;;;;;8.25;5.05;;;-3.60;99.90;;;;;;5043028;28;20067;-81
2022/11/21 00:55:44;;;;;;;8.57;4.95;;;-3.60;99.90;;;;;;5043972;28;20057;-81
2022/11/21 00:58:12;;;;;;;7.53;5.15;;;-3.50;99.90;;;;;;5042206;28;20456;-82
2022/11/21 01:00:39;;;;;;;5.55;4.53;;;-3.50;99.90;;;;;;5042284;28;20071;-81
2022/11/21 01:03:06;;;;;;;9.48;5.40;;;-3.50;99.90;;;;;;5051393;28;20085;-82
2022/11/21 01:05:34;;;;;;;7.13;4.72;;;-3.50;99.90;;;;;;5073622;28;20048;-81
2022/11/21 01:08:01;;;;;;;8.48;5.25;;;-3.50;99.90;;;;;;5042179;28;20067;-82
2022/11/21 01:10:28;;;;;;;9.10;5.20;;;-3.50;99.90;;;;;;5043395;28;20044;-81
2022/11/21 01:12:57;;;;;;;7.68;4.95;;;-3.50;99.90;;;;;;5047160;28;20049;-80
2022/11/21 01:15:24;;;;;;;7.38;4.90;;;-3.50;99.90;;;;;;5048762;28;20415;-80
2022/11/21 01:17:52;;;;;;;6.93;4.43;;;-3.50;99.90;;;;;;5032139;28;20057;-81
2022/11/21 01:20:19;;;;;;;5.22;4.05;;;-3.50;99.90;;;;;;5028576;28;20046;-81
2022/11/21 01:22:46;;;;;;;7.20;4.97;;;-3.60;99.90;;;;;;5030297;28;20503;-81
2022/11/21 01:25:14;;;;;;;6.47;4.50;;;-3.60;99.90;;;;;;5044013;28;20041;-81
2022/11/21 01:27:41;;;;;;;7.57;4.72;;;-3.50;99.90;;;;;;5049974;28;20048;-80
2022/11/21 01:30:13;;;;;;;7.25;5.03;;;-3.50;99.90;;;;;;5039250;28;20053;-76
2022/11/21 01:32:40;;;;;;;6.00;4.90;;;-3.60;99.90;;;;;;5049922;28;20045;-77
2022/11/21 01:35:09;;;;;;;8.43;4.80;;;-3.60;99.90;;;;;;5049477;28;20102;-77
2022/11/21 01:37:36;;;;;;;9.85;3.88;;;-3.60;99.90;;;;;;5039180;28;21018;-76
2022/11/21 01:40:04;;;;;;;4.13;3.72;;;-3.50;99.90;;;;;;5058054;28;20060;-75
2022/11/21 01:42:52;;;;;;;5.10;3.95;;;-3.60;99.90;;;;;;5050672;28;20129;-75
2022/11/21 01:45:57;;;;;;;5.70;3.90;;;-3.60;99.90;;;;;;5054665;28;20465;-76
2022/11/21 01:48:31;;;;;;;6.80;3.95;;;-3.60;99.90;;;;;;5049145;28;20045;-76
2022/11/21 01:51:03;;;;;;;6.28;4.07;;;-3.60;99.90;;;;;;5053788;28;20140;-76
2022/11/21 01:53:31;;;;;;;6.90;4.25;;;-3.70;99.90;;;;;;5045604;28;20049;-76
2022/11/21 01:55:58;;;;;;;5.03;4.10;;;-3.70;99.90;;;;;;5038832;28;20061;-76
2022/11/21 01:58:26;;;;;;;5.57;3.97;;;-3.70;99.90;;;;;;5048820;28;20450;-75
2022/11/21 02:00:55;;;;;;;8.98;4.30;;;-3.70;99.90;;;;;;5060697;28;20056;-81
2022/11/21 02:03:27;;;;;;;5.50;4.60;;;-3.70;99.90;;;;;;5045194;28;20080;-81
2022/11/21 02:05:56;;;;;;;8.43;4.53;;;-3.70;99.90;;;;;;5050481;28;20045;-81
2022/11/21 02:08:25;;;;;;;4.75;4.32;;;-3.60;99.90;;;;;;5049343;28;20045;-81
2022/11/21 02:11:03;;;;;;;4.18;3.78;;;-3.70;99.90;;;;;;5029252;28;20057;-81
2022/11/21 02:13:30;;;;;;;4.65;4.03;;;-3.70;99.90;;;;;;5046833;28;20136;-82
2022/11/21 02:15:59;;;;;;;5.32;3.80;;;-3.70;99.90;;;;;;5047563;28;20044;-83
2022/11/21 02:18:27;;;;;;;6.13;4.25;;;-3.70;99.90;;;;;;5047410;28;20056;-81
2022/11/21 02:21:02;;;;;;;5.68;4.40;;;-3.80;99.90;;;;;;5033875;28;20053;-81
2022/11/21 02:23:39;;;;;;;4.60;3.85;;;-3.70;99.90;;;;;;5049135;28;20098;-83
2022/11/21 02:26:08;;;;;;;4.97;3.75;;;-3.70;99.90;;;;;;5050358;28;20185;-83
2022/11/21 02:28:35;;;;;;;5.28;3.78;;;-3.80;99.90;;;;;;5046379;28;20523;-81
2022/11/21 02:31:03;;;;;;;4.95;3.92;;;-3.80;99.90;;;;;;5047945;28;20072;-82
2022/11/21 02:33:30;;;;;;;4.20;3.53;;;-3.80;99.90;;;;;;5078235;28;20051;-82
2022/11/21 02:35:59;;;;;;;5.97;4.30;;;-3.80;99.90;;;;;;5045632;28;20147;-78
2022/11/21 02:38:31;;;;;;;4.80;3.85;;;-3.80;99.90;;;;;;5030844;28;20042;-78
2022/11/21 02:41:08;;;;;;;5.75;3.45;;;-3.80;99.90;;;;;;5043526;28;20532;-82
2022/11/21 02:43:40;;;;;;;4.35;3.88;;;-3.80;99.90;;;;;;5063353;28;20048;-83
2022/11/21 02:46:07;;;;;;;5.55;4.15;;;-3.80;99.90;;;;;;5030157;28;20057;-82
2022/11/21 02:48:36;;;;;;;4.93;3.53;;;-3.90;99.90;;;;;;5052070;28;20139;-81
2022/11/21 02:51:04;;;;;;;5.45;3.88;;;-3.80;99.90;;;;;;5046824;28;20053;-83
2022/11/21 02:53:31;;;;;;;5.20;3.67;;;-3.90;99.90;;;;;;5048220;28;20048;-82
2022/11/21 02:55:58;;;;;;;5.38;3.85;;;-3.90;99.90;;;;;;5040653;28;20044;-83
2022/11/21 02:58:27;;;;;;;5.45;3.90;;;-3.90;99.90;;;;;;5036709;28;20085;-80
2022/11/21 03:00:55;;;;;;;5.20;3.63;;;-4.00;99.90;;;;;;5048848;28;20057;-79
2022/11/21 03:03:22;;;;;;;5.15;4.05;;;-3.90;99.90;;;;;;5039425;28;20067;-80
2022/11/21 03:05:50;;;;;;;4.65;3.67;;;-3.90;99.90;;;;;;5030004;28;20045;-81
2022/11/21 03:08:17;;;;;;;6.25;3.67;;;-3.90;99.90;;;;;;5044526;28;20418;-80
2022/11/21 03:10:45;;;;;;;5.25;4.00;;;-3.80;99.90;;;;;;5040956;28;20054;-80
2022/11/21 03:13:12;;;;;;;6.65;4.05;;;-3.80;99.90;;;;;;5044523;28;20407;-80
2022/11/21 03:15:41;;;;;;;5.70;4.10;;;-3.80;99.90;;;;;;5038666;28;20540;-81
2022/11/21 03:18:08;;;;;;;6.40;3.97;;;-3.90;99.90;;;;;;5042227;28;20049;-81
2022/11/21 03:20:35;;;;;;;8.93;4.60;;;-3.90;99.90;;;;;;5044672;28;20162;-82
2022/11/21 03:23:03;;;;;;;5.43;4.05;;;-3.90;99.90;;;;;;5053306;28;20055;-83
2022/11/21 03:25:31;;;;;;;7.05;4.40;;;-3.90;99.90;;;;;;5033454;28;20110;-80
2022/11/21 03:27:58;;;;;;;6.35;4.90;;;-3.90;99.90;;;;;;5066014;28;20053;-82
2022/11/21 03:30:27;;;;;;;7.32;4.47;;;-3.80;99.90;;;;;;5049732;28;20071;-76
2022/11/21 03:32:57;;;;;;;4.85;4.32;;;-3.80;99.90;;;;;;5037450;28;20057;-77
2022/11/21 03:35:25;;;;;;;6.95;5.20;;;-3.80;99.90;;;;;;5049357;28;20159;-76
2022/11/21 03:37:53;;;;;;;14.98;5.70;;;-3.80;99.90;;;;;;5022892;28;20565;-77
2022/11/21 03:40:20;;;;;;;7.57;5.25;;;-3.80;99.90;;;;;;5063060;28;20056;-78
2022/11/21 03:42:48;;;;;;;6.30;4.97;;;-3.80;99.90;;;;;;5051758;28;20051;-76
2022/11/21 03:45:18;;;;;;;7.22;4.97;;;-3.80;99.90;;;;;;5050085;28;20514;-76
2022/11/21 03:47:45;;;;;;;6.22;4.93;;;-3.80;99.90;;;;;;5033457;28;20053;-76
2022/11/21 03:50:17;;;;;;;5.82;4.43;;;-3.80;99.90;;;;;;5040208;28;20052;-75
2022/11/21 03:52:45;;;;;;;7.97;5.23;;;-3.80;99.90;;;;;;5052801;28;20148;-75
2022/11/21 03:55:12;;;;;;;7.18;5.07;;;-3.80;99.90;;;;;;5055947;28;20311;-77
2022/11/21 03:57:39;;;;;;;6.45;4.85;;;-3.70;99.90;;;;;;5034968;28;20072;-77
2022/11/21 04:00:09;;;;;;;6.03;4.95;;;-3.80;99.90;;;;;;5032735;28;20057;-76
2022/11/21 04:02:37;;;;;;;5.78;4.60;;;-3.80;99.90;;;;;;5047767;28;20048;-81
2022/11/21 04:05:05;;;;;;;6.28;5.07;;;-3.80;99.90;;;;;;5054301;28;20132;-80
2022/11/21 04:07:33;;;;;;;7.25;5.07;;;-3.80;99.90;;;;;;5049366;28;20513;-79
2022/11/21 04:10:01;;;;;;;7.03;4.82;;;-3.80;99.90;;;;;;5050129;28;20163;-77
2022/11/21 04:12:30;;;;;;;5.43;4.93;;;-3.80;99.90;;;;;;5043633;28;20568;-73
2022/11/21 04:14:57;;;;;;;7.35;5.32;;;-3.80;99.90;;;;;;5026198;28;20405;-74
2022/11/21 04:17:25;;;;;;;5.30;4.35;;;-3.80;99.90;;;;;;5051054;28;20061;-77
2022/11/21 04:19:53;;;;;;;6.40;4.68;;;-4.00;99.90;;;;;;5052397;28;20645;-78
2022/11/21 04:22:20;;;;;;;7.55;5.30;;;-4.00;99.90;;;;;;5067450;28;20053;-77
2022/11/21 04:24:49;;;;;;;7.90;5.30;;;-4.00;99.90;;;;;;5050704;28;20044;-73
2022/11/21 04:27:16;;;;;;;6.78;5.03;;;-4.00;99.90;;;;;;5052006;28;20852;-78
2022/11/21 04:29:44;;;;;;;8.10;4.68;;;-4.00;99.90;;;;;;5052252;28;20044;-72
2022/11/21 04:32:11;;;;;;;6.80;5.47;;;-4.10;99.90;;;;;;5051297;28;20099;-73
2022/11/21 04:34:38;;;;;;;7.40;5.50;;;-4.20;99.90;;;;;;5052070;28;20069;-77
2022/11/21 04:37:06;;;;;;;7.78;5.38;;;-4.20;99.90;;;;;;5063998;28;20182;-78
2022/11/21 04:39:33;;;;;;;5.75;4.78;;;-4.20;99.90;;;;;;5054473;28;20052;-75
2022/11/21 04:42:02;;;;;;;8.50;5.57;;;-4.30;99.90;;;;;;5052204;28;20049;-71
2022/11/21 04:44:29;;;;;;;8.90;5.85;;;-4.40;99.90;;;;;;5051445;28;20049;-73
2022/11/21 04:47:01;;;;;;;11.65;6.13;;;-4.30;99.90;;;;;;5048054;28;20188;-79
2022/11/21 04:49:29;;;;;;;8.85;5.90;;;-4.30;99.90;;;;;;5043912;28;20476;-72
2022/11/21 04:51:56;;;;;;;6.88;5.13;;;-4.30;99.90;;;;;;5034706;28;20048;-72
2022/11/21 04:54:24;;;;;;;8.13;5.53;;;-4.30;99.90;;;;;;5042401;28;20128;-75
2022/11/21 04:56:54;;;;;;;13.70;6.20;;;-4.20;99.90;;;;;;5043884;28;20127;-77
2022/11/21 04:59:23;;;;;;;9.13;6.18;;;-4.20;99.90;;;;;;5052377;28;20088;-73
2022/11/21 05:01:50;;;;;;;10.18;5.90;;;-4.20;99.90;;;;;;5051669;28;20044;-75
2022/11/21 05:04:18;;;;;;;12.15;6.80;;;-4.20;99.90;;;;;;5051451;28;20061;-72
2022/11/21 05:06:45;;;;;;;8.80;6.50;;;-4.20;99.90;;;;;;5052121;28;20421;-73
2022/11/21 05:09:12;;;;;;;9.23;6.13;;;-4.10;99.90;;;;;;5050467;28;20258;-73
2022/11/21 05:14:26;;;;;;;8.25;5.65;;;-4.10;99.90;;;;;;5040375;28;20063;-72
2022/11/21 05:16:54;;;;;;;12.13;5.90;;;-4.00;99.90;;;;;;5050223;28;20422;-76
2022/11/21 05:19:24;;;;;;;9.63;5.80;;;-4.00;99.90;;;;;;5030748;28;20060;-79
2022/11/21 05:21:52;;;;;;;9.27;5.22;;;-4.00;99.90;;;;;;5032195;28;20548;-78
2022/11/21 05:24:22;;;;;;;8.88;5.85;;;-4.00;99.90;;;;;;5038614;28;20048;-78
2022/11/21 05:26:49;;;;;;;11.55;6.40;;;-4.10;99.90;;;;;;5041686;28;20053;-78
2022/11/21 05:29:16;;;;;;;6.82;5.28;;;-4.10;99.90;;;;;;5051638;28;20056;-77
2022/11/21 05:31:45;;;;;;;7.25;5.45;;;-4.00;99.90;;;;;;5049509;28;20055;-78
2022/11/21 05:34:13;;;;;;;7.55;6.13;;;-4.00;99.90;;;;;;5047704;28;20509;-78
2022/11/21 05:36:40;;;;;;;7.65;5.32;;;-4.00;99.90;;;;;;5049563;28;20041;-79
2022/11/21 05:39:08;;;;;;;8.32;5.63;;;-4.00;99.90;;;;;;5032788;28;20478;-79
2022/11/21 05:41:36;;;;;;;6.38;4.88;;;-4.00;99.90;;;;;;5049276;28;20146;-78
2022/11/21 05:44:02;;;;;;;7.55;5.35;;;-4.00;99.90;;;;;;5033506;28;20028;-78
2022/11/21 05:46:30;;;;;;;6.40;4.60;;;-3.90;99.90;;;;;;5032356;28;20567;-77
2022/11/21 05:48:58;;;;;;;8.52;5.85;;;-3.90;99.90;;;;;;5055965;28;20049;-77
2022/11/21 05:51:26;;;;;;;5.97;4.60;;;-4.00;99.90;;;;;;5039253;28;20115;-79
2022/11/21 05:53:53;;;;;;;8.10;5.30;;;-4.00;99.90;;;;;;5032294;28;20042;-78
2022/11/21 05:56:21;;;;;;;5.95;3.80;;;-4.10;99.90;;;;;;5072676;28;20056;-78
2022/11/21 05:58:48;;;;;;;6.47;4.45;;;-4.10;99.90;;;;;;5051385;28;20045;-75
2022/11/21 06:03:25;;;;;;;12.75;5.45;;;-4.20;99.90;;;;;;5050999;28;20056;-75
2022/11/21 06:04:06;;;;;;;7.57;5.05;;;-4.30;99.90;;;;;;5049811;28;20095;-77
2022/11/21 06:06:34;;;;;;;7.47;5.50;;;-4.30;99.90;;;;;;5050233;28;20135;-76
2022/11/21 06:09:02;;;;;;;8.52;5.13;;;-4.30;99.90;;;;;;5065955;28;20045;-77
2022/11/21 06:11:29;;;;;;;8.00;5.28;;;-4.30;99.90;;;;;;5046944;28;20048;-75
2022/11/21 06:13:57;;;;;;;11.23;5.22;;;-4.20;99.90;;;;;;5049843;28;20053;-74
2022/11/21 06:16:26;;;;;;;7.00;5.72;;;-4.20;99.90;;;;;;5062819;28;20053;-75
2022/11/21 06:18:53;;;;;;;10.10;5.28;;;-4.10;99.90;;;;;;5030812;28;20064;-76
2022/11/21 06:21:24;;;;;;;9.93;5.80;;;-4.10;99.90;;;;;;5046206;28;20052;-75
2022/11/21 06:23:54;;;;;;;10.25;6.78;;;-4.20;99.90;;;;;;5030940;28;20409;-74
2022/11/21 06:26:23;;;;;;;8.98;6.05;;;-4.10;99.90;;;;;;5030750;28;20103;-75
2022/11/21 06:28:51;;;;;;;9.73;6.88;;;-4.10;99.90;;;;;;5041853;28;20049;-78
2022/11/21 06:31:22;;;;;;;9.85;7.07;;;-4.10;99.90;;;;;;5026142;28;20048;-75
2022/11/21 06:33:53;;;;;;;9.82;7.03;;;-4.10;99.90;;;;;;5046521;28;20057;-74
2022/11/21 06:36:22;;;;;;;10.77;7.18;;;-4.10;99.90;;;;;;5049441;28;20548;-72
2022/11/21 06:38:49;;;;;;;11.50;8.18;;;-4.10;99.90;;;;;;5046900;28;20061;-73
2022/11/21 06:41:18;;;;;;;10.38;7.90;;;-4.10;99.90;;;;;;5049310;28;20132;-74
2022/11/21 06:43:46;;;;;;;13.88;9.10;;;-4.10;99.90;;;;;;5039558;28;20073;-75
2022/11/21 06:46:15;;;;;;;10.98;7.55;;;-4.00;99.90;;;;;;5049493;28;20448;-73
2022/11/21 06:48:43;;;;;;;11.88;8.25;;;-3.90;99.90;;;;;;5073086;28;20068;-74
2022/11/21 06:51:16;;;;;;;13.43;7.70;;;-3.90;99.90;;;;;;5064437;28;20069;-75
2022/11/21 06:53:46;;;;;;;11.80;8.13;;;-3.80;99.90;;;;;;5048795;28;20061;-72
2022/11/21 06:56:15;;;;;;;13.82;8.60;;;-3.80;99.90;;;;;;5048939;28;20498;-74
2022/11/21 06:58:42;;;;;;;16.30;9.05;;;-3.90;99.90;;;;;;5052685;28;20524;-76
2022/11/21 07:01:11;;;;;;;11.40;7.85;;;-4.00;99.90;;;;;;5051334;28;20056;-76
2022/11/21 07:03:38;;;;;;;12.30;8.63;;;-4.00;99.90;;;;;;5050942;28;20037;-74
2022/11/21 07:06:06;;;;;;;10.15;6.32;;;-3.90;99.90;;;;;;5051596;28;20053;-77
2022/11/21 07:08:36;;;;;;;11.38;6.70;;;-3.90;99.90;;;;;;5051464;28;20055;-74
2022/11/21 07:11:07;;;;;;;8.15;6.22;;;-3.90;99.90;;;;;;5053924;28;20057;-79
2022/11/21 07:13:33;;;;;;;8.00;6.20;;;-3.90;99.90;;;;;;5052617;28;20125;-76
2022/11/21 07:16:03;;;;;;;26.58;7.00;;;-3.80;99.90;;;;;;5052937;28;20369;-75
2022/11/21 07:18:31;;;;;;;6.65;5.68;;;-3.90;99.90;;;;;;5046663;28;20052;-77
2022/11/21 07:20:59;;;;;;;8.23;6.32;;;-3.90;99.90;;;;;;5054348;28;20382;-74
2022/11/21 07:23:27;;;;;;;9.02;6.13;;;-3.90;99.90;;;;;;5069382;28;20053;-74
2022/11/21 07:25:54;;;;;;;9.90;6.15;;;-4.00;99.90;;;;;;5047445;28;20049;-75
2022/11/21 07:28:23;;;;;;;6.80;5.50;;;-3.90;99.90;;;;;;5034290;28;20572;-75
2022/11/21 07:30:51;;;;;;;11.43;5.60;;;-4.00;99.90;;;;;;5032054;28;20048;-75
2022/11/21 07:33:18;;;;;;;8.32;5.00;;;-4.00;99.90;;;;;;5032733;28;20052;-75
2022/11/21 07:35:45;;;;;;;5.38;4.43;;;-4.00;99.90;;;;;;5048272;28;20514;-75
2022/11/21 07:38:13;;;;;;;8.05;5.85;;;-4.10;99.90;;;;;;5033309;28;20536;-75
2022/11/21 07:40:40;;;;;;;9.27;5.90;;;-4.10;99.90;;;;;;5034107;28;20132;-75
2022/11/21 07:43:07;;;;;;;8.65;5.85;;;-4.10;99.90;;;;;;5049015;28;20072;-74
2022/11/21 07:45:36;;;;;;;8.57;6.07;;;-4.00;99.90;;;;;;5033824;28;20615;-73
2022/11/21 07:48:06;;;;;;;12.07;7.70;;;-3.90;99.90;;;;;;5033642;28;20061;-76
2022/11/21 07:50:34;;;;;;;11.88;8.13;;;-3.90;99.90;;;;;;5065549;28;20095;-74
2022/11/21 07:53:03;;;;;;;13.77;8.60;;;-3.90;99.90;;;;;;5032731;28;20053;-75
2022/11/21 07:55:31;;;;;;;14.65;8.88;;;-3.90;99.90;;;;;;5033832;28;20077;-75
2022/11/21 07:58:00;;;;;;;14.52;9.48;;;-3.90;99.90;;;;;;5033078;28;20148;-75
2022/11/21 08:00:28;;;;;;;17.98;10.40;;;-3.80;99.90;;;;;;5033480;28;20414;-75
2022/11/21 08:02:57;;;;;;;15.70;9.20;;;-3.80;99.90;;;;;;5033397;28;20045;-76
2022/11/21 08:05:24;;;;;;;15.15;10.32;;;-3.80;99.90;;;;;;5033657;28;20057;-75
2022/11/21 08:07:52;;;;;;;18.35;10.05;;;-3.80;99.90;;;;;;5030880;28;20045;-76
2022/11/21 08:10:20;;;;;;;17.52;9.65;;;-3.80;99.90;;;;;;5033738;28;20053;-76
2022/11/21 08:12:47;;;;;;;13.57;9.15;;;-3.70;99.90;;;;;;5015685;28;20399;-76
2022/11/21 08:15:15;;;;;;;16.27;9.32;;;-3.60;99.90;;;;;;5031783;28;20072;-76
2022/11/21 08:17:43;;;;;;;14.25;8.98;;;-3.70;99.90;;;;;;5032933;28;20481;-75
2022/11/21 08:20:12;;;;;;;14.77;8.48;;;-3.70;99.90;;;;;;5033248;28;20045;-77
2022/11/21 08:22:40;;;;;;;13.15;8.13;;;-3.60;99.90;;;;;;5033333;28;20073;-77
2022/11/21 08:25:09;;;;;;;9.93;7.72;;;-3.60;99.90;;;;;;5032956;28;20068;-77
2022/11/21 08:27:38;;;;;;;11.60;7.78;;;-3.60;99.90;;;;;;5065405;28;20468;-76
2022/11/21 08:30:08;;;;;;;12.32;7.40;;;-3.60;99.90;;;;;;5031957;28;20045;-76
2022/11/21 08:32:35;;;;;;;19.85;7.45;;;-3.50;99.90;;;;;;5032918;28;20621;-76
2022/11/21 08:35:03;;;;;;;12.60;7.80;;;-3.50;99.90;;;;;;5033101;28;20507;-76
2022/11/21 08:37:33;;;;;;;10.43;6.50;;;-3.50;99.90;;;;;;5032756;28;20063;-75
2022/11/21 08:40:01;;;;;;;9.80;6.30;;;-3.50;99.90;;;;;;5033311;28;20037;-76
2022/11/21 08:42:31;;;;;;;8.88;5.68;;;-3.50;99.90;;;;;;5031405;28;20045;-77
2022/11/21 08:44:59;;;;;;;10.13;6.45;;;-3.50;99.90;;;;;;5032886;28;20046;-75
2022/11/21 08:47:26;;;;;;;7.82;5.70;;;-3.60;99.90;;;;;;5031388;28;20054;-76
2022/11/21 08:49:56;;;;;;;10.30;6.43;;;-3.60;99.90;;;;;;5014563;28;20191;-75
2022/11/21 08:52:23;;;;;;;8.23;5.82;;;-3.50;99.90;;;;;;5032377;28;20045;-77
2022/11/21 08:54:52;;;;;;;8.48;5.60;;;-3.50;99.90;;;;;;5033091;28;20072;-75
2022/11/21 08:57:19;;;;;;;9.07;5.50;;;-3.50;99.90;;;;;;5032228;28;20607;-76
2022/11/21 08:59:47;;;;;;;7.00;5.05;;;-3.50;99.90;;;;;;5032629;28;20050;-78
2022/11/21 09:02:14;;;;;;;6.82;5.25;;;-3.50;99.90;;;;;;5064289;28;20103;-77
2022/11/21 09:04:41;;;;;;;8.05;5.47;;;-3.50;99.90;;;;;;5047702;28;20081;-76
2022/11/21 09:07:09;;;;;;;7.75;5.90;;;-3.50;99.90;;;;;;5032317;28;20045;-76
2022/11/21 09:09:36;;;;;;;5.30;4.72;;;-3.50;99.90;;;;;;5032566;28;20478;-75
2022/11/21 09:12:05;;;;;;;9.02;4.70;;;-3.50;99.90;;;;;;5032170;28;20140;-76
2022/11/21 09:20:03;;;;;;;6.03;4.25;;;-3.40;99.90;;;;;;5014246;28;20049;-75
2022/11/21 09:22:30;;;;;;;8.50;4.63;;;-3.40;99.90;;;;;;5032207;28;20100;-76
2022/11/21 09:24:58;;;;;;;6.50;4.57;;;-3.40;99.90;;;;;;5031981;28;20072;-76
2022/11/21 09:27:26;;;;;;;6.45;4.55;;;-3.50;99.90;;;;;;5030283;28;20418;-77
2022/11/21 09:29:54;;;;;;;12.63;5.13;;;-3.60;99.90;;;;;;5031609;28;20513;-75
2022/11/21 09:32:21;;;;;;;7.80;4.78;;;-3.60;99.90;;;;;;5031893;28;20083;-76
2022/11/21 09:34:58;;;;;;;7.63;4.78;;;-3.50;99.90;;;;;;5031617;28;20445;-77
2022/11/21 09:37:28;;;;;;;9.50;5.07;;;-3.40;99.90;;;;;;5030269;28;20052;-77
2022/11/21 09:39:56;;;;;;;8.43;4.68;;;-3.30;99.90;;;;;;5063684;28;20152;-77
2022/11/21 09:42:54;;;;;;;5.03;4.43;;;-3.20;99.90;;;;;;5039512;28;20051;-77
2022/11/21 09:45:26;;;;;;;5.30;4.78;;;-3.20;99.90;;;;;;5050070;28;20126;-75
2022/11/21 09:47:56;;;;;;;9.23;5.47;;;-3.20;99.90;;;;;;5049928;28;20497;-74
2022/11/21 09:50:30;;;;;;;7.28;4.18;;;-3.20;99.90;;;;;;5062924;28;20064;-77
2022/11/21 09:53:03;;;;;;;5.72;4.50;;;-3.10;99.90;;;;;;5048428;28;20520;-76
2022/11/21 09:55:41;;;;;;;7.10;4.43;;;-3.10;99.90;;;;;;5050457;28;20111;-75
2022/11/21 09:58:20;;;;;;;5.60;4.30;;;-3.10;99.90;;;;;;5046620;28;20048;-74
2022/11/21 10:00:51;;;;;;;5.15;4.25;;;-3.20;99.90;;;;;;5051470;28;20577;-77
2022/11/21 10:03:22;;;;;;;5.05;3.97;;;-3.30;99.90;;;;;;5047927;28;20131;-76
2022/11/21 10:05:54;;;;;;;5.05;4.15;;;-3.30;99.90;;;;;;5046736;28;20440;-75
2022/11/21 10:08:35;;;;;;;4.10;3.70;;;-3.30;99.90;;;;;;5051003;28;20053;-75
2022/11/21 10:11:17;;;;;;;5.45;4.22;;;-3.30;99.90;;;;;;5051093;28;20087;-75
2022/11/21 10:14:06;;;;;;;6.90;4.57;;;-3.40;99.90;;;;;;5051145;28;20570;-75
2022/11/21 10:16:43;;;;;;;6.43;4.75;;;-3.30;99.90;;;;;;5050787;28;20119;-75
2022/11/21 10:19:38;;;;;;;5.22;4.45;;;-3.30;99.90;;;;;;5051066;28;20053;-75
2022/11/21 10:22:35;;;;;;;5.22;4.22;;;-3.30;99.90;;;;;;5050817;28;20525;-75
2022/11/21 10:25:13;;;;;;;12.18;4.63;;;-3.20;99.90;;;;;;5051151;28;20095;-77
2022/11/21 10:27:49;;;;;;;7.82;4.45;;;-3.10;99.90;;;;;;5066221;28;20609;-76
2022/11/21 10:30:21;;;;;;;6.70;4.35;;;-3.00;99.90;;;;;;5049048;28;20541;-77
2022/11/21 10:32:53;;;;;;;5.47;4.38;;;-3.00;99.90;;;;;;5047725;28;20142;-77
2022/11/21 10:35:23;;;;;;;14.13;6.70;;;-3.00;99.90;;;;;;5035151;28;20049;-76
2022/11/21 10:37:53;;;;;;;6.50;4.28;;;-3.00;99.90;;;;;;5051800;28;20056;-75
2022/11/21 10:40:38;;;;;;;7.82;4.20;;;-3.00;99.90;;;;;;5064081;28;20478;-76
2022/11/21 10:46:00;;;;;;;7.20;4.30;;;-3.10;99.90;;;;;;5061042;28;20044;-76
2022/11/21 10:48:27;;;;;;;6.75;4.55;;;-3.10;99.90;;;;;;5065202;28;20044;-76
2022/11/21 10:51:14;;;;;;;6.65;4.53;;;-3.10;99.90;;;;;;5067765;28;20044;-76
2022/11/21 10:56:38;;;;;;;15.45;5.88;;;-3.10;99.90;;;;;;4987034;28;20057;-76
2022/11/21 10:59:21;;;;;;;6.97;4.28;;;-3.10;99.90;;;;;;5048931;28;20062;-74
2022/11/21 11:01:58;;;;;;;6.10;3.90;;;-3.20;99.90;;;;;;5068754;28;20071;-76
2022/11/21 11:04:27;;;;;;;8.95;4.28;;;-3.20;99.90;;;;;;5067014;28;20102;-76
2022/11/21 11:06:55;;;;;;;7.18;4.05;;;-3.20;99.90;;;;;;5057861;28;20420;-75
2022/11/21 11:09:27;;;;;;;5.78;4.30;;;-3.30;99.90;;;;;;5064960;28;21460;-75
2022/11/21 11:12:20;;;;;;;8.25;4.45;;;-3.30;99.90;;;;;;5066094;28;20076;-75
2022/11/21 11:14:51;;;;;;;5.95;4.28;;;-3.30;99.90;;;;;;5067103;28;20098;-75
2022/11/21 11:17:30;;;;;;;4.70;4.00;;;-3.20;99.90;;;;;;5065543;28;20106;-75
2022/11/21 11:20:04;;;;;;;4.95;3.90;;;-3.20;99.90;;;;;;5063566;28;20055;-80
2022/11/21 11:22:32;;;;;;;6.45;4.28;;;-3.30;99.90;;;;;;5059957;28;20045;-79
2022/11/21 11:24:59;;;;;;;4.80;4.25;;;-3.40;99.90;;;;;;5063169;28;20390;-80
2022/11/21 11:27:28;;;;;;;4.95;4.40;;;-3.40;99.90;;;;;;5066368;28;20080;-77
2022/11/21 11:29:56;;;;;;;7.75;4.43;;;-3.40;99.90;;;;;;5061612;28;20040;-76
2022/11/21 11:32:24;;;;;;;8.38;4.50;;;-3.40;99.90;;;;;;5065635;28;20051;-75
2022/11/21 11:35:00;;;;;;;8.10;5.20;;;-3.40;99.90;;;;;;5062190;28;20052;-75
2022/11/21 11:37:35;;;;;;;5.45;4.50;;;-3.40;99.90;;;;;;5064201;28;20044;-76
2022/11/21 11:40:19;;;;;;;7.78;4.75;;;-3.40;99.90;;;;;;5065810;28;20055;-76
2022/11/21 11:49:08;;;;;;;5.88;4.28;;;-3.30;99.90;;;;;;5079669;28;20078;-75
2022/11/21 11:51:40;;;;;;;7.53;4.47;;;-3.40;99.90;;;;;;5069414;28;20052;-75
2022/11/21 11:54:14;;;;;;;14.93;5.80;;;-3.50;99.90;;;;;;5069966;28;20588;-76
2022/11/21 11:56:43;;;;;;;6.97;5.22;;;-3.40;99.90;;;;;;5080843;28;20140;-76
2022/11/21 11:59:18;;;;;;;7.47;4.88;;;-3.40;99.90;;;;;;5069399;28;20559;-76
2022/11/21 12:01:51;;;;;;;6.50;4.85;;;-3.40;99.90;;;;;;5069816;28;20051;-76
2022/11/21 12:04:21;;;;;;;8.10;4.60;;;-3.30;99.90;;;;;;5065324;28;20497;-77
2022/11/21 12:06:55;;;;;;;6.93;5.32;;;-3.30;99.90;;;;;;5068608;28;20406;-77
2022/11/21 12:09:31;;;;;;;7.13;4.90;;;-3.30;99.90;;;;;;5067558;28;20056;-77
2022/11/21 12:12:10;;;;;;;6.80;4.88;;;-3.40;99.90;;;;;;5065070;28;20087;-75
2022/11/21 12:17:48;;;;;;;6.95;4.68;;;-3.40;99.90;;;;;;5080573;28;20105;-78
2022/11/21 12:20:20;;;;;;;6.18;4.63;;;-3.40;99.90;;;;;;5064954;28;20053;-76
2022/11/21 12:22:52;;;;;;;6.30;4.72;;;-3.40;99.90;;;;;;5064206;28;20060;-77
2022/11/21 12:25:36;;;;;;;5.68;4.32;;;-3.40;99.90;;;;;;5068551;28;20048;-77
2022/11/21 12:28:15;;;;;;;9.25;5.50;;;-3.40;99.90;;;;;;5065721;28;20040;-76
2022/11/21 12:31:06;;;;;;;7.47;4.93;;;-3.50;99.90;;;;;;5069044;28;20181;-77
2022/11/21 12:33:38;;;;;;;8.93;4.68;;;-3.50;99.90;;;;;;5068857;28;20045;-76
2022/11/21 12:36:22;;;;;;;8.57;4.53;;;-3.50;99.90;;;;;;5047182;28;20485;-75
2022/11/21 12:39:41;;;;;;;7.25;5.20;;;-3.50;99.90;;;;;;5058682;28;20493;-77
2022/11/21 12:45:26;;;;;;;12.18;5.82;;;-3.40;99.90;;;;;;4950793;29;20062;-80
2022/11/21 12:54:52;;;;;;;7.28;5.35;;;-3.40;99.90;;;;;;5031026;28;20173;-83
2022/11/21 12:57:38;;;;;;;10.32;4.50;;;-3.30;99.90;;;;;;5050121;28;20055;-83
2022/11/21 13:00:16;;;;;;;6.18;4.57;;;-3.30;99.90;;;;;;5050798;28;20735;-79
2022/11/21 13:03:21;;;;;;;5.15;3.95;;;-3.30;99.90;;;;;;5039455;28;20084;-80
2022/11/21 13:05:52;;;;;;;8.82;4.53;;;-3.30;99.90;;;;;;5046720;28;20122;-84
2022/11/21 13:08:25;;;;;;;10.15;4.50;;;-3.30;99.90;;;;;;5039462;28;20213;-81
2022/11/21 13:14:03;;;;;;;10.63;4.90;;;-3.40;99.90;;;;;;5032322;28;20089;-82
2022/11/21 13:16:43;;;;;;;6.15;4.00;;;-3.50;99.90;;;;;;5036465;28;20069;-80
2022/11/21 13:19:24;;;;;;;5.80;3.63;;;-3.40;99.90;;;;;;5047418;28;20065;-78
2022/11/21 13:21:53;;;;;;;9.85;4.88;;;-3.50;99.90;;;;;;5029185;28;20049;-81
2022/11/21 13:24:57;;;;;;;11.52;5.28;;;-3.50;99.90;;;;;;5033206;28;20063;-74
2022/11/21 13:27:37;;;;;;;6.32;3.92;;;-3.50;99.90;;;;;;5047138;28;20563;-74
2022/11/21 13:30:23;;;;;;;12.77;4.75;;;-3.50;99.90;;;;;;5049232;28;20084;-76
2022/11/21 13:32:53;;;;;;;6.55;4.53;;;-3.50;99.90;;;;;;5049526;28;20053;-74
2022/11/21 13:36:06;;;;;;;10.05;4.13;;;-3.50;99.90;;;;;;5050398;28;20056;-81
2022/11/21 13:39:33;;;;;;;9.88;4.70;;;-3.60;99.90;;;;;;5050159;28;20139;-77
2022/11/21 13:45:39;;;;;;;13.13;4.63;;;-3.70;99.90;;;;;;5040089;28;20144;-81